Terminal Aerodrome Forecast
Issued by NWS Green Bay, WI

Home | Current Version | Previous Version | Text Only | Print | Product List | Glossary Off
Versions: 1 2 3 4 5 6 7 8 9 10 11 12 13 14 15 16 17 18 19 20 21 22 23

000
FTUS43 KGRB 201737
TAFGRB
TAF
KGRB 201737Z 2018/2118 16015G22KT P6SM SCT020 BKN080
      TEMPO 2020/2024 BKN020
     FM210000 20006KT P6SM VCSH SCT020 BKN035
      TEMPO 2100/2104 3SM TSRA BKN015CB
     FM210500 35005KT 4SM BR BKN015 BKN025
     FM210900 04007KT 3SM BR BKN008 BKN015
     FM211500 07007KT P6SM BKN015 BKN025=

USA.gov is the U.S. government's official web portal to all federal, state and local government web resources and services.